createdAt,value
2022-12-18T00:00:19.565Z,-4.23
2022-12-18T00:03:08.474Z,-4.22
2022-12-18T00:05:37.896Z,-4.21
2022-12-18T00:08:09.593Z,-4.20
2022-12-18T00:10:38.813Z,-4.22
2022-12-18T00:13:09.955Z,-4.23
2022-12-18T00:15:40.960Z,-4.23
2022-12-18T00:18:09.765Z,-4.23
2022-12-18T00:20:40.103Z,-4.22
2022-12-18T00:23:08.331Z,-4.20
2022-12-18T00:25:37.896Z,-4.17
2022-12-18T00:28:06.712Z,-4.16
2022-12-18T00:30:34.913Z,-4.15
2022-12-18T00:33:03.015Z,-4.16
2022-12-18T00:35:33.177Z,-4.19
2022-12-18T00:38:01.417Z,-4.21
2022-12-18T00:40:29.517Z,-4.22
2022-12-18T00:42:57.719Z,-4.18
2022-12-18T00:45:28.466Z,-4.18
2022-12-18T00:47:57.902Z,-4.17
2022-12-18T00:50:27.165Z,-4.18
2022-12-18T00:52:55.356Z,-4.19
2022-12-18T00:55:24.019Z,-4.20
2022-12-18T00:57:53.615Z,-4.22
2022-12-18T01:00:22.271Z,-4.21
2022-12-18T01:02:50.737Z,-4.20
2022-12-18T01:05:19.448Z,-4.20
2022-12-18T01:07:47.654Z,-4.20
2022-12-18T01:10:15.916Z,-4.21
2022-12-18T01:12:44.168Z,-4.21
2022-12-18T01:15:14.395Z,-4.21
2022-12-18T01:17:43.367Z,-4.22
2022-12-18T01:20:13.488Z,-4.22
2022-12-18T01:22:41.782Z,-4.22
2022-12-18T01:25:10.463Z,-4.20
2022-12-18T01:27:38.713Z,-4.19
2022-12-18T01:30:07.581Z,-4.18
2022-12-18T01:32:35.760Z,-4.20
2022-12-18T01:35:04.992Z,-4.22
2022-12-18T01:37:33.658Z,-4.24
2022-12-18T01:40:01.912Z,-4.24
2022-12-18T01:42:30.133Z,-4.23
2022-12-18T01:45:07.715Z,-4.19
2022-12-18T01:47:47.796Z,-4.17
2022-12-18T01:50:45.395Z,-4.18
2022-12-18T01:53:23.791Z,-4.19
2022-12-18T01:55:55.009Z,-4.19
2022-12-18T01:59:14.891Z,-4.18
2022-12-18T02:01:43.164Z,-4.16
2022-12-18T02:04:23.768Z,-4.14
2022-12-18T02:07:07.609Z,-4.15
2022-12-18T02:09:44.845Z,-4.20
2022-12-18T02:12:25.280Z,-4.22
2022-12-18T02:15:01.708Z,-4.25
2022-12-18T02:17:36.147Z,-4.22
2022-12-18T02:20:21.456Z,-4.19
2022-12-18T02:23:08.922Z,-4.20
2022-12-18T02:26:05.940Z,-4.21
2022-12-18T02:28:43.766Z,-4.21
2022-12-18T02:31:17.536Z,-4.22
2022-12-18T02:33:47.340Z,-4.24
2022-12-18T02:36:18.387Z,-4.29
2022-12-18T02:38:48.131Z,-4.30
2022-12-18T02:41:18.058Z,-4.30
2022-12-18T02:43:57.207Z,-4.30
2022-12-18T02:46:47.465Z,-4.32
2022-12-18T02:49:35.111Z,-4.32
2022-12-18T02:52:29.931Z,-4.34
2022-12-18T02:55:23.065Z,-4.38
2022-12-18T02:58:03.848Z,-4.38
2022-12-18T03:01:04.834Z,-4.36
2022-12-18T03:03:53.069Z,-4.36
2022-12-18T03:06:28.304Z,-4.38
2022-12-18T03:09:08.391Z,-4.39
2022-12-18T03:12:01.555Z,-4.40
2022-12-18T03:14:33.810Z,-4.38
2022-12-18T03:17:05.332Z,-4.35
2022-12-18T03:19:35.940Z,-4.33
2022-12-18T03:22:08.237Z,-4.31
2022-12-18T03:24:47.445Z,-4.30
2022-12-18T03:27:20.737Z,-4.31
2022-12-18T03:30:00.377Z,-4.32
2022-12-18T03:32:34.320Z,-4.33
2022-12-18T03:35:06.506Z,-4.32
2022-12-18T03:37:37.557Z,-4.29
2022-12-18T03:40:07.258Z,-4.25
2022-12-18T03:42:35.753Z,-4.26
2022-12-18T03:45:21.901Z,-4.26
2022-12-18T03:48:09.772Z,-4.27
2022-12-18T03:51:06.545Z,-4.27
2022-12-18T03:54:00.634Z,-4.23
2022-12-18T03:56:40.127Z,-4.22
2022-12-18T03:59:12.596Z,-4.20
2022-12-18T04:01:47.079Z,-4.21
2022-12-18T04:04:19.041Z,-4.25
2022-12-18T04:06:51.160Z,-4.28
2022-12-18T04:09:21.908Z,-4.30
2022-12-18T04:11:50.310Z,-4.29
2022-12-18T04:14:18.754Z,-4.26
2022-12-18T04:16:50.075Z,-4.24
2022-12-18T04:19:19.568Z,-4.21
2022-12-18T04:21:49.255Z,-4.20
2022-12-18T04:24:17.418Z,-4.21
2022-12-18T04:26:53.475Z,-4.23
2022-12-18T04:29:29.328Z,-4.26
2022-12-18T04:31:58.322Z,-4.27
2022-12-18T04:34:27.555Z,-4.24
2022-12-18T04:36:56.524Z,-4.24
2022-12-18T04:39:25.572Z,-4.25
2022-12-18T04:41:56.138Z,-4.27
2022-12-18T04:44:24.715Z,-4.27
2022-12-18T04:46:52.875Z,-4.32
2022-12-18T04:49:21.113Z,-4.36
2022-12-18T04:51:49.311Z,-4.38
2022-12-18T04:54:17.524Z,-4.38
2022-12-18T04:56:45.792Z,-4.37
2022-12-18T04:59:15.644Z,-4.37
2022-12-18T05:01:44.028Z,-4.38
2022-12-18T05:04:12.966Z,-4.38
2022-12-18T05:06:41.182Z,-4.38
2022-12-18T05:09:09.333Z,-4.40
2022-12-18T05:11:38.177Z,-4.43
2022-12-18T05:14:06.291Z,-4.42
2022-12-18T05:16:35.192Z,-4.40
2022-12-18T05:19:03.379Z,-4.37
2022-12-18T05:21:32.028Z,-4.37
2022-12-18T05:24:00.389Z,-4.39
2022-12-18T05:26:28.660Z,-4.40
2022-12-18T05:28:56.740Z,-4.43
2022-12-18T05:31:24.834Z,-4.46
2022-12-18T05:33:53.036Z,-4.48
2022-12-18T05:36:21.304Z,-4.48
2022-12-18T05:38:49.495Z,-4.45
2022-12-18T05:41:17.657Z,-4.43
2022-12-18T05:43:45.834Z,-4.40
2022-12-18T05:46:17.490Z,-4.40
2022-12-18T05:48:46.537Z,-4.40
2022-12-18T05:51:18.031Z,-4.41
2022-12-18T05:53:47.032Z,-4.41
2022-12-18T05:56:18.749Z,-4.39
2022-12-18T05:58:48.219Z,-4.36
2022-12-18T06:01:23.660Z,-4.35
2022-12-18T06:03:52.185Z,-4.36
2022-12-18T06:06:23.656Z,-4.38
2022-12-18T06:08:52.339Z,-4.40
2022-12-18T06:11:24.031Z,-4.43
2022-12-18T06:13:59.075Z,-4.44
2022-12-18T06:16:32.093Z,-4.42
2022-12-18T06:19:02.121Z,-4.39
2022-12-18T06:21:31.500Z,-4.37
2022-12-18T06:24:01.457Z,-4.38
2022-12-18T06:26:29.768Z,-4.39
2022-12-18T06:28:58.099Z,-4.40
2022-12-18T06:31:27.246Z,-4.40
2022-12-18T06:33:55.491Z,-4.40
2022-12-18T06:36:23.999Z,-4.38
2022-12-18T06:38:52.116Z,-4.33
2022-12-18T06:41:22.140Z,-4.30
2022-12-18T06:43:50.800Z,-4.27
2022-12-18T06:46:19.603Z,-4.27
2022-12-18T06:48:50.354Z,-4.27
2022-12-18T06:51:21.001Z,-4.26
2022-12-18T06:53:49.685Z,-4.24
2022-12-18T06:56:18.174Z,-4.23
2022-12-18T06:58:46.543Z,-4.19
2022-12-18T07:01:14.996Z,-4.17
2022-12-18T07:03:44.961Z,-4.15
2022-12-18T07:06:21.045Z,-4.12
2022-12-18T07:08:50.705Z,-4.10
2022-12-18T07:11:19.239Z,-4.10
2022-12-18T07:13:47.508Z,-4.10
2022-12-18T07:16:24.827Z,-4.10
2022-12-18T07:18:57.148Z,-4.06
2022-12-18T07:21:25.839Z,-3.99
2022-12-18T07:23:54.420Z,-3.93
2022-12-18T07:26:23.100Z,-3.89
2022-12-18T07:28:51.831Z,-3.86
2022-12-18T07:31:22.817Z,-3.82
2022-12-18T07:33:52.381Z,-3.78
2022-12-18T07:36:24.356Z,-3.72
2022-12-18T07:38:53.983Z,-3.62
2022-12-18T07:41:23.328Z,-3.52
2022-12-18T07:43:51.665Z,-3.45
2022-12-18T07:46:20.821Z,-3.37
2022-12-18T07:48:50.219Z,-3.31
2022-12-18T07:51:20.282Z,-3.24
2022-12-18T07:53:51.805Z,-3.21
2022-12-18T07:56:27.626Z,-3.18
2022-12-18T07:58:57.338Z,-3.13
2022-12-18T08:01:26.014Z,-3.08
2022-12-18T08:03:54.448Z,-2.97
2022-12-18T08:06:24.153Z,-2.88
2022-12-18T08:08:55.123Z,-2.75
2022-12-18T08:11:25.374Z,-2.67
2022-12-18T08:13:54.339Z,-2.59
2022-12-18T08:16:23.721Z,-2.49
2022-12-18T08:18:53.813Z,-2.42
2022-12-18T08:21:28.721Z,-2.40
2022-12-18T08:24:00.526Z,-2.41
2022-12-18T08:26:31.881Z,-2.36
2022-12-18T08:29:01.343Z,-2.28
2022-12-18T08:31:31.942Z,-2.19
2022-12-18T08:34:00.236Z,-2.11
2022-12-18T08:36:28.633Z,-2.05
2022-12-18T08:38:58.347Z,-2.02
2022-12-18T08:41:27.845Z,-1.98
2022-12-18T08:44:14.654Z,-1.94
2022-12-18T08:46:45.724Z,-1.91
2022-12-18T08:49:14.100Z,-1.84
2022-12-18T08:51:45.513Z,-1.77
2022-12-18T08:54:14.910Z,-1.67
2022-12-18T08:56:43.145Z,-1.56
2022-12-18T08:59:18.795Z,-1.46
2022-12-18T09:01:49.314Z,-1.35
2022-12-18T09:04:17.863Z,-1.30
2022-12-18T09:06:45.964Z,-1.28
2022-12-18T09:09:14.213Z,-1.22
2022-12-18T09:11:42.733Z,-1.12
2022-12-18T09:14:11.345Z,-1.01
2022-12-18T09:16:40.738Z,-0.91
2022-12-18T09:19:11.037Z,-0.81
2022-12-18T09:21:43.387Z,-0.74
2022-12-18T09:24:14.962Z,-0.63
2022-12-18T09:26:47.319Z,-0.50
2022-12-18T09:29:18.934Z,-0.38
2022-12-18T09:31:48.332Z,-0.28
2022-12-18T09:34:17.953Z,-0.18
2022-12-18T09:36:46.075Z,-0.07
2022-12-18T09:39:16.044Z,0.04
2022-12-18T09:41:54.683Z,0.12
2022-12-18T09:44:44.950Z,0.19
2022-12-18T09:47:29.920Z,0.25
2022-12-18T09:50:02.595Z,0.32
2022-12-18T09:52:36.547Z,0.44
2022-12-18T09:55:20.971Z,0.46
2022-12-18T09:57:56.174Z,0.53
2022-12-18T10:00:26.288Z,0.49
2022-12-18T10:03:02.519Z,0.45
2022-12-18T10:05:43.179Z,0.44
2022-12-18T10:08:24.120Z,0.46
2022-12-18T10:10:58.278Z,0.42
2022-12-18T10:13:33.520Z,0.53
2022-12-18T10:16:20.934Z,0.52
2022-12-18T10:19:08.364Z,0.50
2022-12-18T10:21:59.850Z,0.44
2022-12-18T10:24:41.739Z,0.30
2022-12-18T10:27:23.667Z,0.04
2022-12-18T10:29:51.961Z,-0.24
2022-12-18T10:32:26.622Z,-0.30
2022-12-18T10:35:00.809Z,-0.23
2022-12-18T10:37:33.522Z,-0.32
2022-12-18T10:40:22.028Z,-0.58
2022-12-18T10:43:07.128Z,-0.89
2022-12-18T10:45:36.232Z,-1.04
2022-12-18T10:48:04.968Z,-1.07
2022-12-18T10:51:09.143Z,-1.14
2022-12-18T10:53:31.071Z,-1.19
2022-12-18T10:56:00.981Z,-1.23
2022-12-18T10:58:35.763Z,-1.22
2022-12-18T11:01:07.200Z,-1.13
2022-12-18T11:03:47.903Z,-1.09
2022-12-18T11:06:23.962Z,-1.01
2022-12-18T11:09:12.224Z,-0.95
2022-12-18T11:11:50.329Z,-0.96
2022-12-18T11:14:27.185Z,-0.99
2022-12-18T11:17:24.508Z,-1.05
2022-12-18T11:19:53.085Z,-1.11
2022-12-18T11:22:27.526Z,-1.02
2022-12-18T11:28:25.968Z,-0.77
2022-12-18T11:31:33.053Z,-0.50
2022-12-18T11:37:04.266Z,0.01
2022-12-18T11:39:42.355Z,0.19
2022-12-18T11:42:37.858Z,0.44
2022-12-18T11:45:12.184Z,0.70
2022-12-18T11:48:04.779Z,0.97
2022-12-18T11:50:47.432Z,1.08
2022-12-18T11:53:16.053Z,1.10
2022-12-18T11:55:51.661Z,1.07
2022-12-18T11:58:49.057Z,0.97
2022-12-18T12:01:43.392Z,0.80
2022-12-18T12:05:00.838Z,0.61
2022-12-18T12:08:04.445Z,0.32
2022-12-18T12:10:54.214Z,0.08
2022-12-18T12:13:25.309Z,-0.09
2022-12-18T12:16:10.715Z,-0.26
2022-12-18T12:18:51.521Z,-0.32
2022-12-18T12:21:41.708Z,-0.29
2022-12-18T12:24:19.044Z,-0.28
2022-12-18T12:26:56.609Z,-0.28
2022-12-18T12:29:52.333Z,-0.27
2022-12-18T12:32:35.525Z,-0.25
2022-12-18T12:35:11.823Z,-0.27
2022-12-18T12:38:08.357Z,-0.32
2022-12-18T12:40:58.900Z,-0.36
2022-12-18T12:43:48.027Z,-0.38
2022-12-18T12:46:23.050Z,-0.41
2022-12-18T12:49:03.836Z,-0.49
2022-12-18T12:51:38.322Z,-0.61
2022-12-18T12:54:18.902Z,-0.72
2022-12-18T12:57:13.843Z,-0.76
2022-12-18T13:00:11.080Z,-0.87
2022-12-18T13:03:04.761Z,-0.95
2022-12-18T13:05:43.050Z,-1.04
2022-12-18T13:08:26.850Z,-1.14
2022-12-18T13:11:18.321Z,-1.22
2022-12-18T13:13:56.475Z,-1.30
2022-12-18T13:16:28.581Z,-1.39
2022-12-18T13:19:00.036Z,-1.42
2022-12-18T13:21:34.831Z,-1.44
2022-12-18T13:24:24.673Z,-1.47
2022-12-18T13:26:53.596Z,-1.56
2022-12-18T13:29:47.433Z,-1.63
2022-12-18T13:32:27.582Z,-1.72
2022-12-18T13:35:18.092Z,-1.81
2022-12-18T13:37:54.487Z,-1.90
2022-12-18T13:40:40.885Z,-1.95
2022-12-18T13:43:47.002Z,-2.03
2022-12-18T13:46:20.541Z,-2.11
2022-12-18T13:49:00.960Z,-2.16
2022-12-18T13:51:33.089Z,-2.18
2022-12-18T13:54:37.732Z,-2.21
2022-12-18T13:57:26.297Z,-2.29
2022-12-18T14:00:22.371Z,-2.42
2022-12-18T14:02:52.340Z,-2.52
2022-12-18T14:05:26.177Z,-2.59
2022-12-18T14:07:55.996Z,-2.62
2022-12-18T14:10:45.529Z,-2.68
2022-12-18T14:13:29.361Z,-2.72
2022-12-18T14:16:01.810Z,-2.76
2022-12-18T14:18:56.921Z,-2.76
2022-12-18T14:21:33.785Z,-2.76
2022-12-18T14:24:18.284Z,-2.77
2022-12-18T14:26:50.889Z,-2.80
2022-12-18T14:29:28.565Z,-2.86
2022-12-18T14:32:10.564Z,-2.94
2022-12-18T14:34:45.109Z,-3.00
2022-12-18T14:37:16.814Z,-3.09
2022-12-18T14:39:55.443Z,-3.21
2022-12-18T14:42:24.358Z,-3.30
2022-12-18T14:45:13.353Z,-3.38
2022-12-18T14:47:45.132Z,-3.46
2022-12-18T14:50:17.664Z,-3.49
2022-12-18T14:52:46.070Z,-3.51
2022-12-18T14:55:22.611Z,-3.53
2022-12-18T14:57:53.837Z,-3.54
2022-12-18T15:00:24.761Z,-3.55
2022-12-18T15:02:58.971Z,-3.57
2022-12-18T15:05:33.140Z,-3.65
2022-12-18T15:08:03.752Z,-3.82
2022-12-18T15:10:34.255Z,-3.94
2022-12-18T15:13:04.125Z,-4.03
2022-12-18T15:15:53.896Z,-4.10
2022-12-18T15:18:31.082Z,-4.19
2022-12-18T15:21:08.285Z,-4.23
2022-12-18T15:23:47.026Z,-4.28
2022-12-18T15:26:19.611Z,-4.31
2022-12-18T15:28:58.592Z,-4.39
2022-12-18T15:31:37.545Z,-4.46
2022-12-18T15:34:08.752Z,-4.52
2022-12-18T15:36:38.073Z,-4.58
2022-12-18T15:39:07.063Z,-4.66
2022-12-18T15:41:37.706Z,-4.77
2022-12-18T15:44:24.381Z,-4.84
2022-12-18T15:46:52.620Z,-4.86
2022-12-18T15:49:20.979Z,-4.85
2022-12-18T15:51:59.567Z,-4.84
2022-12-18T15:54:46.574Z,-4.83
2022-12-18T15:57:24.372Z,-4.84
2022-12-18T16:00:13.910Z,-4.88
2022-12-18T16:02:42.186Z,-4.93
2022-12-18T16:05:18.201Z,-5.02
2022-12-18T16:07:47.025Z,-5.09
2022-12-18T16:10:17.126Z,-5.16
2022-12-18T16:12:49.950Z,-5.23
2022-12-18T16:15:24.256Z,-5.31
2022-12-18T16:17:55.567Z,-5.41
2022-12-18T16:20:40.286Z,-5.48
2022-12-18T16:23:09.043Z,-5.53
2022-12-18T16:25:38.396Z,-5.59
2022-12-18T16:28:11.547Z,-5.64
2022-12-18T16:30:41.576Z,-5.63
2022-12-18T16:33:12.495Z,-5.64
2022-12-18T16:35:41.054Z,-5.58
2022-12-18T16:38:09.418Z,-5.52
2022-12-18T16:40:58.939Z,-5.47
2022-12-18T16:43:28.348Z,-5.44
2022-12-18T16:46:00.057Z,-5.43
2022-12-18T16:48:32.873Z,-5.42
2022-12-18T16:51:04.429Z,-5.45
2022-12-18T16:53:35.809Z,-5.41
2022-12-18T16:56:05.060Z,-5.36
2022-12-18T16:58:35.006Z,-5.31
2022-12-18T17:01:10.134Z,-5.27
2022-12-18T17:03:38.817Z,-5.26
2022-12-18T17:06:07.794Z,-5.28
2022-12-18T17:08:36.044Z,-5.27
2022-12-18T17:11:07.976Z,-5.28
2022-12-18T17:13:36.224Z,-5.28
2022-12-18T17:16:06.990Z,-5.29
2022-12-18T17:18:36.257Z,-5.30
2022-12-18T17:21:07.821Z,-5.29
2022-12-18T17:23:37.358Z,-5.31
2022-12-18T17:26:08.479Z,-5.36
2022-12-18T17:28:39.896Z,-5.47
2022-12-18T17:31:14.142Z,-5.58
2022-12-18T17:33:43.017Z,-5.67
2022-12-18T17:36:12.942Z,-5.75
2022-12-18T17:38:41.604Z,-5.84
2022-12-18T17:41:11.990Z,-5.94
2022-12-18T17:43:45.882Z,-6.02
2022-12-18T17:46:15.446Z,-6.11
2022-12-18T17:48:43.805Z,-6.20
2022-12-18T17:51:12.775Z,-6.30
2022-12-18T17:53:42.348Z,-6.39
2022-12-18T17:56:16.869Z,-6.47
2022-12-18T17:58:45.500Z,-6.58
2022-12-18T18:01:23.872Z,-6.70
2022-12-18T18:03:54.272Z,-6.89
2022-12-18T18:06:23.591Z,-7.04
2022-12-18T18:08:52.165Z,-7.22
2022-12-18T18:11:41.828Z,-7.35
2022-12-18T18:14:17.075Z,-7.46
2022-12-18T18:16:50.614Z,-7.52
2022-12-18T18:19:24.196Z,-7.59
2022-12-18T18:21:54.567Z,-7.69
2022-12-18T18:24:23.726Z,-7.80
2022-12-18T18:26:52.668Z,-7.90
2022-12-18T18:29:26.893Z,-7.99
2022-12-18T18:31:57.046Z,-8.09
2022-12-18T18:34:27.932Z,-8.17
2022-12-18T18:36:56.286Z,-8.23
2022-12-18T18:39:25.720Z,-8.27
2022-12-18T18:41:54.182Z,-8.32
2022-12-18T18:44:26.025Z,-8.39
2022-12-18T18:46:56.533Z,-8.43
2022-12-18T18:49:28.114Z,-8.44
2022-12-18T18:51:58.108Z,-8.47
2022-12-18T18:54:26.464Z,-8.53
2022-12-18T18:59:44.061Z,-8.75
2022-12-18T19:02:14.603Z,-8.91
2022-12-18T19:04:47.863Z,-9.04
2022-12-18T19:07:24.063Z,-9.22
2022-12-18T19:10:05.145Z,-9.42
2022-12-18T19:12:53.802Z,-9.58
2022-12-18T19:15:23.312Z,-9.76
2022-12-18T19:17:52.697Z,-9.84
2022-12-18T19:20:21.566Z,-9.97
2022-12-18T19:22:54.898Z,-10.09
2022-12-18T19:25:38.431Z,-10.12
2022-12-18T19:28:21.668Z,-10.14
2022-12-18T19:30:58.892Z,-10.15
2022-12-18T19:33:48.180Z,-10.13
2022-12-18T19:36:25.396Z,-10.14
2022-12-18T19:38:56.941Z,-10.21
2022-12-18T19:41:26.201Z,-10.29
2022-12-18T19:43:57.510Z,-10.32
2022-12-18T19:46:25.847Z,-10.39
2022-12-18T19:48:54.056Z,-10.48
2022-12-18T19:51:28.457Z,-10.51
2022-12-18T19:53:59.801Z,-10.61
2022-12-18T19:56:32.156Z,-10.68
2022-12-18T19:59:01.568Z,-10.76
2022-12-18T20:01:30.884Z,-10.83
2022-12-18T20:04:00.332Z,-10.95
2022-12-18T20:06:33.959Z,-11.05
2022-12-18T20:09:05.709Z,-11.14
2022-12-18T20:11:40.163Z,-11.21
2022-12-18T20:14:12.510Z,-11.31
2022-12-18T20:16:41.575Z,-11.37
2022-12-18T20:19:14.857Z,-11.37
2022-12-18T20:21:44.852Z,-11.41
2022-12-18T20:24:13.311Z,-11.49
2022-12-18T20:26:41.696Z,-11.52
2022-12-18T20:29:10.188Z,-11.59
2022-12-18T20:31:38.660Z,-11.76
2022-12-18T20:34:07.232Z,-11.87
2022-12-18T20:36:37.651Z,-11.93
2022-12-18T20:39:07.638Z,-12.04
2022-12-18T20:41:39.239Z,-12.16
2022-12-18T20:44:21.737Z,-12.21
2022-12-18T20:46:54.116Z,-12.36
2022-12-18T20:49:24.016Z,-12.48
2022-12-18T20:51:54.339Z,-12.63
2022-12-18T20:54:24.291Z,-12.71
2022-12-18T20:56:52.849Z,-12.80
2022-12-18T20:59:21.264Z,-12.94
2022-12-18T21:01:50.074Z,-13.03
2022-12-18T21:04:19.370Z,-13.08
2022-12-18T21:06:53.375Z,-13.09
2022-12-18T21:09:26.117Z,-13.17
2022-12-18T21:12:14.047Z,-13.28
2022-12-18T21:14:43.424Z,-13.37
2022-12-18T21:17:12.055Z,-13.46
2022-12-18T21:19:40.371Z,-13.54
2022-12-18T21:22:10.184Z,-13.63
2022-12-18T21:24:38.363Z,-13.73
2022-12-18T21:27:06.544Z,-13.83
2022-12-18T21:29:36.368Z,-13.96
2022-12-18T21:32:05.406Z,-14.12
2022-12-18T21:34:34.246Z,-14.24
2022-12-18T21:37:03.787Z,-14.36
2022-12-18T21:39:32.834Z,-14.44
2022-12-18T21:42:19.556Z,-14.48
2022-12-18T21:44:49.232Z,-14.57
2022-12-18T21:47:22.543Z,-14.70
2022-12-18T21:49:52.940Z,-14.80
2022-12-18T21:52:31.249Z,-14.86
2022-12-18T21:55:08.581Z,-14.92
2022-12-18T21:57:39.475Z,-14.95
2022-12-18T22:00:18.955Z,-14.92
2022-12-18T22:03:04.904Z,-14.94
2022-12-18T22:05:37.587Z,-14.98
2022-12-18T22:08:07.053Z,-15.01
2022-12-18T22:10:36.355Z,-15.02
2022-12-18T22:13:06.336Z,-15.06
2022-12-18T22:15:34.600Z,-15.04
2022-12-18T22:18:03.038Z,-15.01
2022-12-18T22:20:31.319Z,-14.89
2022-12-18T22:23:02.872Z,-14.78
2022-12-18T22:25:35.212Z,-14.79
2022-12-18T22:28:25.692Z,-14.77
2022-12-18T22:30:59.133Z,-14.74
2022-12-18T22:33:28.566Z,-14.66
2022-12-18T22:35:56.904Z,-14.68
2022-12-18T22:38:25.292Z,-14.68
2022-12-18T22:40:54.743Z,-14.65
2022-12-18T22:43:23.175Z,-14.57
2022-12-18T22:45:51.300Z,-14.52
2022-12-18T22:48:19.593Z,-14.48
2022-12-18T22:50:47.748Z,-14.43
2022-12-18T22:53:17.274Z,-14.48
2022-12-18T22:55:45.388Z,-14.47
2022-12-18T22:58:13.750Z,-14.41
2022-12-18T23:00:41.848Z,-14.33
2022-12-18T23:03:10.375Z,-14.27
2022-12-18T23:05:38.629Z,-14.16
2022-12-18T23:08:06.720Z,-14.02
2022-12-18T23:10:38.541Z,-13.94
2022-12-18T23:13:06.943Z,-13.92
2022-12-18T23:15:35.324Z,-13.87
2022-12-18T23:18:03.817Z,-13.80
2022-12-18T23:20:32.086Z,-13.71
2022-12-18T23:23:00.193Z,-13.60
2022-12-18T23:25:28.298Z,-13.59
2022-12-18T23:27:56.514Z,-13.52
2022-12-18T23:30:24.756Z,-13.45
2022-12-18T23:32:52.887Z,-13.38
2022-12-18T23:35:21.347Z,-13.26
2022-12-18T23:37:59.331Z,-13.21
2022-12-18T23:40:29.623Z,-13.29
2022-12-18T23:42:59.287Z,-13.28
2022-12-18T23:45:28.073Z,-13.32
2022-12-18T23:47:56.372Z,-13.32
2022-12-18T23:50:28.866Z,-13.32
2022-12-18T23:53:04.901Z,-13.23
2022-12-18T23:55:39.818Z,-13.15
2022-12-18T23:58:15.813Z,-13.05
